sensor_id;sensor_type;location;lat;lon;timestamp;P1;durP1;ratioP1;P2;durP2;ratioP2
49826;SDS011;35715;51.570;6.036;2022-10-20T00:01:09;11.68;;;6.88;;
49826;SDS011;35715;51.570;6.036;2022-10-20T00:03:35;12.02;;;7.78;;
49826;SDS011;35715;51.570;6.036;2022-10-20T00:08:51;10.38;;;6.63;;
49826;SDS011;35715;51.570;6.036;2022-10-20T00:11:18;9.18;;;5.75;;
49826;SDS011;35715;51.570;6.036;2022-10-20T00:13:46;11.02;;;6.05;;
49826;SDS011;35715;51.570;6.036;2022-10-20T00:16:23;12.80;;;6.93;;
49826;SDS011;35715;51.570;6.036;2022-10-20T00:18:49;8.65;;;7.10;;
49826;SDS011;35715;51.570;6.036;2022-10-20T00:21:16;10.00;;;6.82;;
49826;SDS011;35715;51.570;6.036;2022-10-20T00:23:46;15.77;;;7.30;;
49826;SDS011;35715;51.570;6.036;2022-10-20T00:26:13;12.57;;;7.45;;
49826;SDS011;35715;51.570;6.036;2022-10-20T00:28:40;9.48;;;7.65;;
49826;SDS011;35715;51.570;6.036;2022-10-20T00:31:06;9.75;;;7.40;;
49826;SDS011;35715;51.570;6.036;2022-10-20T00:33:32;11.52;;;7.18;;
49826;SDS011;35715;51.570;6.036;2022-10-20T00:36:00;12.68;;;7.50;;
49826;SDS011;35715;51.570;6.036;2022-10-20T00:38:27;15.65;;;6.72;;
49826;SDS011;35715;51.570;6.036;2022-10-20T00:40:52;9.80;;;6.13;;
49826;SDS011;35715;51.570;6.036;2022-10-20T00:43:17;15.77;;;8.02;;
49826;SDS011;35715;51.570;6.036;2022-10-20T00:45:55;12.52;;;8.07;;
49826;SDS011;35715;51.570;6.036;2022-10-20T00:48:24;10.68;;;7.10;;
49826;SDS011;35715;51.570;6.036;2022-10-20T00:50:59;8.98;;;7.22;;
49826;SDS011;35715;51.570;6.036;2022-10-20T00:53:25;14.18;;;7.88;;
49826;SDS011;35715;51.570;6.036;2022-10-20T00:55:54;12.55;;;8.10;;
49826;SDS011;35715;51.570;6.036;2022-10-20T00:58:23;11.98;;;7.75;;
49826;SDS011;35715;51.570;6.036;2022-10-20T01:00:51;31.92;;;9.27;;
49826;SDS011;35715;51.570;6.036;2022-10-20T01:06:04;10.95;;;7.60;;
49826;SDS011;35715;51.570;6.036;2022-10-20T01:08:29;14.63;;;8.07;;
49826;SDS011;35715;51.570;6.036;2022-10-20T01:13:34;10.52;;;7.65;;
49826;SDS011;35715;51.570;6.036;2022-10-20T01:27:42;11.60;;;8.27;;
49826;SDS011;35715;51.570;6.036;2022-10-20T01:30:10;16.08;;;9.18;;
49826;SDS011;35715;51.570;6.036;2022-10-20T01:35:24;15.85;;;9.30;;
49826;SDS011;35715;51.570;6.036;2022-10-20T01:43:20;13.52;;;9.02;;
49826;SDS011;35715;51.570;6.036;2022-10-20T01:48:34;13.15;;;9.10;;
49826;SDS011;35715;51.570;6.036;2022-10-20T01:51:02;10.98;;;9.00;;
49826;SDS011;35715;51.570;6.036;2022-10-20T01:53:28;32.40;;;10.88;;
49826;SDS011;35715;51.570;6.036;2022-10-20T01:55:58;16.52;;;9.88;;
49826;SDS011;35715;51.570;6.036;2022-10-20T02:04:09;12.68;;;9.23;;
49826;SDS011;35715;51.570;6.036;2022-10-20T02:09:33;18.40;;;9.43;;
49826;SDS011;35715;51.570;6.036;2022-10-20T02:12:06;19.63;;;10.52;;
49826;SDS011;35715;51.570;6.036;2022-10-20T02:14:37;15.18;;;9.63;;
49826;SDS011;35715;51.570;6.036;2022-10-20T02:17:04;20.35;;;10.52;;
49826;SDS011;35715;51.570;6.036;2022-10-20T02:19:34;18.73;;;11.00;;
49826;SDS011;35715;51.570;6.036;2022-10-20T02:22:03;14.20;;;10.75;;
49826;SDS011;35715;51.570;6.036;2022-10-20T02:24:33;13.35;;;9.05;;
49826;SDS011;35715;51.570;6.036;2022-10-20T02:27:02;16.95;;;9.48;;
49826;SDS011;35715;51.570;6.036;2022-10-20T02:29:55;12.57;;;8.75;;
49826;SDS011;35715;51.570;6.036;2022-10-20T02:32:49;12.55;;;8.43;;
49826;SDS011;35715;51.570;6.036;2022-10-20T02:35:21;13.27;;;9.30;;
49826;SDS011;35715;51.570;6.036;2022-10-20T02:37:50;15.18;;;10.10;;
49826;SDS011;35715;51.570;6.036;2022-10-20T02:40:16;14.18;;;9.35;;
49826;SDS011;35715;51.570;6.036;2022-10-20T02:42:41;10.15;;;8.55;;
49826;SDS011;35715;51.570;6.036;2022-10-20T02:45:08;17.52;;;9.45;;
49826;SDS011;35715;51.570;6.036;2022-10-20T02:47:34;20.83;;;11.10;;
49826;SDS011;35715;51.570;6.036;2022-10-20T02:49:59;21.23;;;10.48;;
49826;SDS011;35715;51.570;6.036;2022-10-20T02:52:26;9.98;;;8.98;;
49826;SDS011;35715;51.570;6.036;2022-10-20T02:54:52;16.95;;;9.45;;
49826;SDS011;35715;51.570;6.036;2022-10-20T02:57:19;17.20;;;10.07;;
49826;SDS011;35715;51.570;6.036;2022-10-20T02:59:45;16.00;;;10.88;;
49826;SDS011;35715;51.570;6.036;2022-10-20T03:02:10;20.63;;;10.85;;
49826;SDS011;35715;51.570;6.036;2022-10-20T03:04:35;17.48;;;9.45;;
49826;SDS011;35715;51.570;6.036;2022-10-20T03:09:30;15.35;;;9.68;;
49826;SDS011;35715;51.570;6.036;2022-10-20T03:11:56;18.08;;;11.32;;
49826;SDS011;35715;51.570;6.036;2022-10-20T03:14:21;18.38;;;10.35;;
49826;SDS011;35715;51.570;6.036;2022-10-20T03:16:46;13.85;;;9.68;;
49826;SDS011;35715;51.570;6.036;2022-10-20T03:19:13;14.38;;;9.70;;
49826;SDS011;35715;51.570;6.036;2022-10-20T03:21:38;16.20;;;10.95;;
49826;SDS011;35715;51.570;6.036;2022-10-20T03:24:04;14.65;;;9.90;;
49826;SDS011;35715;51.570;6.036;2022-10-20T03:26:35;16.98;;;10.32;;
49826;SDS011;35715;51.570;6.036;2022-10-20T03:29:00;13.75;;;9.18;;
49826;SDS011;35715;51.570;6.036;2022-10-20T03:31:25;17.08;;;10.02;;
49826;SDS011;35715;51.570;6.036;2022-10-20T03:33:51;19.50;;;10.90;;
49826;SDS011;35715;51.570;6.036;2022-10-20T03:36:21;19.77;;;12.95;;
49826;SDS011;35715;51.570;6.036;2022-10-20T03:38:47;13.90;;;11.57;;
49826;SDS011;35715;51.570;6.036;2022-10-20T03:41:12;17.40;;;10.75;;
49826;SDS011;35715;51.570;6.036;2022-10-20T03:43:38;20.50;;;12.05;;
49826;SDS011;35715;51.570;6.036;2022-10-20T03:48:50;14.45;;;9.85;;
49826;SDS011;35715;51.570;6.036;2022-10-20T03:51:16;13.40;;;10.07;;
49826;SDS011;35715;51.570;6.036;2022-10-20T03:53:41;13.23;;;9.23;;
49826;SDS011;35715;51.570;6.036;2022-10-20T03:58:43;17.75;;;11.25;;
49826;SDS011;35715;51.570;6.036;2022-10-20T04:01:12;15.95;;;10.00;;
49826;SDS011;35715;51.570;6.036;2022-10-20T04:03:39;17.20;;;10.80;;
49826;SDS011;35715;51.570;6.036;2022-10-20T04:06:11;14.95;;;9.95;;
49826;SDS011;35715;51.570;6.036;2022-10-20T04:08:37;13.20;;;11.05;;
49826;SDS011;35715;51.570;6.036;2022-10-20T04:11:02;22.60;;;12.75;;
49826;SDS011;35715;51.570;6.036;2022-10-20T04:13:28;22.63;;;12.15;;
49826;SDS011;35715;51.570;6.036;2022-10-20T04:15:54;20.23;;;11.85;;
49826;SDS011;35715;51.570;6.036;2022-10-20T04:18:20;14.32;;;11.10;;
49826;SDS011;35715;51.570;6.036;2022-10-20T04:20:46;13.57;;;10.57;;
49826;SDS011;35715;51.570;6.036;2022-10-20T04:23:12;18.25;;;13.05;;
49826;SDS011;35715;51.570;6.036;2022-10-20T04:28:44;16.60;;;11.98;;
49826;SDS011;35715;51.570;6.036;2022-10-20T04:31:09;14.55;;;11.02;;
49826;SDS011;35715;51.570;6.036;2022-10-20T04:33:35;16.92;;;9.82;;
49826;SDS011;35715;51.570;6.036;2022-10-20T04:36:14;14.23;;;10.30;;
49826;SDS011;35715;51.570;6.036;2022-10-20T04:38:39;13.73;;;10.15;;
49826;SDS011;35715;51.570;6.036;2022-10-20T04:41:05;15.13;;;11.07;;
49826;SDS011;35715;51.570;6.036;2022-10-20T04:43:31;46.38;;;12.25;;
49826;SDS011;35715;51.570;6.036;2022-10-20T04:46:01;12.23;;;11.07;;
49826;SDS011;35715;51.570;6.036;2022-10-20T04:48:29;12.98;;;10.95;;
49826;SDS011;35715;51.570;6.036;2022-10-20T04:51:01;17.40;;;11.75;;
49826;SDS011;35715;51.570;6.036;2022-10-20T04:53:28;11.40;;;9.73;;
49826;SDS011;35715;51.570;6.036;2022-10-20T04:56:02;13.38;;;11.02;;
49826;SDS011;35715;51.570;6.036;2022-10-20T04:58:29;13.25;;;11.77;;
49826;SDS011;35715;51.570;6.036;2022-10-20T05:00:59;18.27;;;11.82;;
49826;SDS011;35715;51.570;6.036;2022-10-20T05:03:32;13.07;;;11.07;;
49826;SDS011;35715;51.570;6.036;2022-10-20T05:06:15;11.43;;;9.88;;
49826;SDS011;35715;51.570;6.036;2022-10-20T05:08:42;11.63;;;8.75;;
49826;SDS011;35715;51.570;6.036;2022-10-20T05:11:10;18.52;;;10.20;;
49826;SDS011;35715;51.570;6.036;2022-10-20T05:13:36;13.05;;;8.88;;
49826;SDS011;35715;51.570;6.036;2022-10-20T05:16:05;13.63;;;9.20;;
49826;SDS011;35715;51.570;6.036;2022-10-20T05:18:31;10.02;;;8.82;;
49826;SDS011;35715;51.570;6.036;2022-10-20T05:20:57;13.68;;;8.35;;
49826;SDS011;35715;51.570;6.036;2022-10-20T05:23:24;14.18;;;9.65;;
49826;SDS011;35715;51.570;6.036;2022-10-20T05:28:20;18.65;;;9.93;;
49826;SDS011;35715;51.570;6.036;2022-10-20T05:30:45;9.48;;;7.88;;
49826;SDS011;35715;51.570;6.036;2022-10-20T05:33:11;14.07;;;9.52;;
49826;SDS011;35715;51.570;6.036;2022-10-20T05:35:40;10.13;;;8.82;;
49826;SDS011;35715;51.570;6.036;2022-10-20T05:38:06;14.63;;;11.03;;
49826;SDS011;35715;51.570;6.036;2022-10-20T05:40:31;10.95;;;8.57;;
49826;SDS011;35715;51.570;6.036;2022-10-20T05:42:56;9.18;;;8.10;;
49826;SDS011;35715;51.570;6.036;2022-10-20T05:45:26;11.45;;;8.38;;
49826;SDS011;35715;51.570;6.036;2022-10-20T05:47:51;17.03;;;11.03;;
49826;SDS011;35715;51.570;6.036;2022-10-20T05:50:17;21.67;;;8.75;;
49826;SDS011;35715;51.570;6.036;2022-10-20T05:52:42;11.70;;;9.85;;
49826;SDS011;35715;51.570;6.036;2022-10-20T05:58:29;11.75;;;9.70;;
49826;SDS011;35715;51.570;6.036;2022-10-20T06:01:03;12.70;;;9.13;;
49826;SDS011;35715;51.570;6.036;2022-10-20T06:03:32;11.55;;;10.45;;
49826;SDS011;35715;51.570;6.036;2022-10-20T06:05:58;12.43;;;11.20;;
49826;SDS011;35715;51.570;6.036;2022-10-20T06:08:24;15.30;;;11.00;;
49826;SDS011;35715;51.570;6.036;2022-10-20T06:10:52;17.23;;;11.23;;
49826;SDS011;35715;51.570;6.036;2022-10-20T06:13:17;12.02;;;9.25;;
49826;SDS011;35715;51.570;6.036;2022-10-20T06:15:43;20.75;;;10.18;;
49826;SDS011;35715;51.570;6.036;2022-10-20T06:18:11;15.65;;;10.38;;
49826;SDS011;35715;51.570;6.036;2022-10-20T06:20:37;11.88;;;10.02;;
49826;SDS011;35715;51.570;6.036;2022-10-20T06:23:02;18.95;;;9.75;;
49826;SDS011;35715;51.570;6.036;2022-10-20T06:25:27;12.27;;;8.77;;
49826;SDS011;35715;51.570;6.036;2022-10-20T06:27:53;13.40;;;9.32;;
49826;SDS011;35715;51.570;6.036;2022-10-20T06:30:19;14.40;;;8.73;;
49826;SDS011;35715;51.570;6.036;2022-10-20T06:32:45;12.27;;;8.48;;
49826;SDS011;35715;51.570;6.036;2022-10-20T06:35:10;16.80;;;8.63;;
49826;SDS011;35715;51.570;6.036;2022-10-20T06:37:35;9.98;;;7.95;;
49826;SDS011;35715;51.570;6.036;2022-10-20T06:40:01;12.85;;;8.88;;
49826;SDS011;35715;51.570;6.036;2022-10-20T06:42:26;12.38;;;9.85;;
49826;SDS011;35715;51.570;6.036;2022-10-20T06:44:52;13.15;;;8.35;;
49826;SDS011;35715;51.570;6.036;2022-10-20T06:47:25;12.77;;;8.20;;
49826;SDS011;35715;51.570;6.036;2022-10-20T06:50:02;24.45;;;9.75;;
49826;SDS011;35715;51.570;6.036;2022-10-20T06:52:28;8.75;;;7.88;;
49826;SDS011;35715;51.570;6.036;2022-10-20T06:54:53;10.38;;;8.75;;
49826;SDS011;35715;51.570;6.036;2022-10-20T06:57:19;10.60;;;6.95;;
49826;SDS011;35715;51.570;6.036;2022-10-20T06:59:44;11.20;;;8.38;;
49826;SDS011;35715;51.570;6.036;2022-10-20T07:02:11;11.45;;;8.70;;
49826;SDS011;35715;51.570;6.036;2022-10-20T07:04:41;13.63;;;9.43;;
49826;SDS011;35715;51.570;6.036;2022-10-20T07:07:08;11.93;;;8.05;;
49826;SDS011;35715;51.570;6.036;2022-10-20T07:10:15;8.68;;;7.88;;
49826;SDS011;35715;51.570;6.036;2022-10-20T07:12:40;8.75;;;7.85;;
49826;SDS011;35715;51.570;6.036;2022-10-20T07:15:06;16.75;;;9.77;;
49826;SDS011;35715;51.570;6.036;2022-10-20T07:17:31;11.13;;;7.35;;
49826;SDS011;35715;51.570;6.036;2022-10-20T07:19:57;13.48;;;7.70;;
49826;SDS011;35715;51.570;6.036;2022-10-20T07:22:22;17.67;;;8.77;;
49826;SDS011;35715;51.570;6.036;2022-10-20T07:24:47;14.70;;;8.70;;
49826;SDS011;35715;51.570;6.036;2022-10-20T07:27:17;10.23;;;8.27;;
49826;SDS011;35715;51.570;6.036;2022-10-20T07:29:42;10.33;;;7.90;;
49826;SDS011;35715;51.570;6.036;2022-10-20T07:32:07;11.05;;;7.70;;
49826;SDS011;35715;51.570;6.036;2022-10-20T07:34:33;9.40;;;8.52;;
49826;SDS011;35715;51.570;6.036;2022-10-20T07:37:02;12.75;;;8.43;;
49826;SDS011;35715;51.570;6.036;2022-10-20T07:39:28;8.63;;;7.80;;
49826;SDS011;35715;51.570;6.036;2022-10-20T07:41:53;12.27;;;8.57;;
49826;SDS011;35715;51.570;6.036;2022-10-20T07:44:18;12.15;;;7.93;;
49826;SDS011;35715;51.570;6.036;2022-10-20T07:46:44;12.27;;;8.73;;
49826;SDS011;35715;51.570;6.036;2022-10-20T07:49:10;11.43;;;8.40;;
49826;SDS011;35715;51.570;6.036;2022-10-20T07:51:35;25.98;;;10.18;;
49826;SDS011;35715;51.570;6.036;2022-10-20T07:54:04;11.55;;;9.43;;
49826;SDS011;35715;51.570;6.036;2022-10-20T07:56:38;19.25;;;9.13;;
49826;SDS011;35715;51.570;6.036;2022-10-20T07:59:08;12.18;;;8.35;;
49826;SDS011;35715;51.570;6.036;2022-10-20T08:01:34;15.77;;;7.88;;
49826;SDS011;35715;51.570;6.036;2022-10-20T08:04:00;10.20;;;7.95;;
49826;SDS011;35715;51.570;6.036;2022-10-20T08:11:21;10.30;;;8.02;;
49826;SDS011;35715;51.570;6.036;2022-10-20T08:13:50;15.02;;;8.68;;
49826;SDS011;35715;51.570;6.036;2022-10-20T08:17:40;12.23;;;7.35;;
49826;SDS011;35715;51.570;6.036;2022-10-20T08:20:06;11.57;;;9.43;;
49826;SDS011;35715;51.570;6.036;2022-10-20T08:22:31;8.90;;;7.95;;
49826;SDS011;35715;51.570;6.036;2022-10-20T08:24:57;12.65;;;8.15;;
49826;SDS011;35715;51.570;6.036;2022-10-20T08:29:55;18.13;;;8.90;;
49826;SDS011;35715;51.570;6.036;2022-10-20T08:32:21;8.57;;;7.47;;
49826;SDS011;35715;51.570;6.036;2022-10-20T08:34:46;25.40;;;10.52;;
49826;SDS011;35715;51.570;6.036;2022-10-20T08:39:40;14.82;;;9.18;;
49826;SDS011;35715;51.570;6.036;2022-10-20T08:42:05;13.15;;;8.07;;
49826;SDS011;35715;51.570;6.036;2022-10-20T08:44:33;10.38;;;8.32;;
49826;SDS011;35715;51.570;6.036;2022-10-20T08:47:03;15.82;;;8.77;;
49826;SDS011;35715;51.570;6.036;2022-10-20T08:49:38;12.35;;;7.10;;
49826;SDS011;35715;51.570;6.036;2022-10-20T08:52:08;11.25;;;8.25;;
49826;SDS011;35715;51.570;6.036;2022-10-20T08:54:36;12.70;;;7.50;;
49826;SDS011;35715;51.570;6.036;2022-10-20T08:57:04;18.25;;;9.68;;
49826;SDS011;35715;51.570;6.036;2022-10-20T08:59:49;10.85;;;8.95;;
49826;SDS011;35715;51.570;6.036;2022-10-20T09:02:17;10.38;;;8.75;;
49826;SDS011;35715;51.570;6.036;2022-10-20T09:04:50;15.27;;;7.35;;
49826;SDS011;35715;51.570;6.036;2022-10-20T09:10:01;16.23;;;9.15;;
49826;SDS011;35715;51.570;6.036;2022-10-20T09:12:40;13.82;;;8.77;;
49826;SDS011;35715;51.570;6.036;2022-10-20T09:15:13;10.10;;;7.57;;
49826;SDS011;35715;51.570;6.036;2022-10-20T09:17:40;8.15;;;7.18;;
49826;SDS011;35715;51.570;6.036;2022-10-20T09:20:20;18.17;;;7.95;;
49826;SDS011;35715;51.570;6.036;2022-10-20T09:22:48;21.98;;;8.48;;
49826;SDS011;35715;51.570;6.036;2022-10-20T09:25:28;8.10;;;7.07;;
49826;SDS011;35715;51.570;6.036;2022-10-20T09:27:54;13.30;;;9.55;;
49826;SDS011;35715;51.570;6.036;2022-10-20T09:30:39;12.85;;;7.65;;
49826;SDS011;35715;51.570;6.036;2022-10-20T09:33:18;10.50;;;8.35;;
49826;SDS011;35715;51.570;6.036;2022-10-20T09:38:48;14.07;;;7.95;;
49826;SDS011;35715;51.570;6.036;2022-10-20T09:41:16;10.13;;;8.80;;
49826;SDS011;35715;51.570;6.036;2022-10-20T09:46:23;11.52;;;9.00;;
49826;SDS011;35715;51.570;6.036;2022-10-20T09:49:32;20.25;;;10.15;;
49826;SDS011;35715;51.570;6.036;2022-10-20T09:52:03;8.80;;;7.82;;
49826;SDS011;35715;51.570;6.036;2022-10-20T09:54:47;23.23;;;11.55;;
49826;SDS011;35715;51.570;6.036;2022-10-20T09:57:17;11.10;;;9.27;;
49826;SDS011;35715;51.570;6.036;2022-10-20T09:59:44;17.02;;;9.20;;
49826;SDS011;35715;51.570;6.036;2022-10-20T10:04:40;9.50;;;8.65;;
49826;SDS011;35715;51.570;6.036;2022-10-20T10:09:56;18.13;;;9.73;;
49826;SDS011;35715;51.570;6.036;2022-10-20T10:12:23;11.23;;;9.75;;
49826;SDS011;35715;51.570;6.036;2022-10-20T10:17:39;13.40;;;9.40;;
49826;SDS011;35715;51.570;6.036;2022-10-20T10:20:24;14.95;;;10.20;;
49826;SDS011;35715;51.570;6.036;2022-10-20T10:23:20;15.80;;;8.82;;
49826;SDS011;35715;51.570;6.036;2022-10-20T10:25:48;15.57;;;10.13;;
49826;SDS011;35715;51.570;6.036;2022-10-20T10:28:31;13.77;;;9.90;;
49826;SDS011;35715;51.570;6.036;2022-10-20T10:31:18;19.85;;;9.70;;
49826;SDS011;35715;51.570;6.036;2022-10-20T10:33:45;14.25;;;9.48;;
49826;SDS011;35715;51.570;6.036;2022-10-20T10:36:24;12.25;;;8.30;;
49826;SDS011;35715;51.570;6.036;2022-10-20T10:38:53;20.67;;;8.98;;
49826;SDS011;35715;51.570;6.036;2022-10-20T10:41:23;19.10;;;9.88;;
49826;SDS011;35715;51.570;6.036;2022-10-20T10:52:26;18.67;;;10.55;;
49826;SDS011;35715;51.570;6.036;2022-10-20T10:55:02;13.30;;;8.77;;
49826;SDS011;35715;51.570;6.036;2022-10-20T11:03:30;14.88;;;9.32;;
49826;SDS011;35715;51.570;6.036;2022-10-20T11:08:27;14.38;;;10.43;;
49826;SDS011;35715;51.570;6.036;2022-10-20T11:16:47;20.65;;;9.68;;
49826;SDS011;35715;51.570;6.036;2022-10-20T11:19:32;17.52;;;12.05;;
49826;SDS011;35715;51.570;6.036;2022-10-20T11:22:25;22.98;;;10.57;;
49826;SDS011;35715;51.570;6.036;2022-10-20T11:27:40;15.45;;;11.73;;
49826;SDS011;35715;51.570;6.036;2022-10-20T11:30:16;18.13;;;10.63;;
49826;SDS011;35715;51.570;6.036;2022-10-20T11:32:52;13.30;;;11.35;;
49826;SDS011;35715;51.570;6.036;2022-10-20T11:38:19;12.48;;;9.85;;
49826;SDS011;35715;51.570;6.036;2022-10-20T11:40:59;15.57;;;10.77;;
49826;SDS011;35715;51.570;6.036;2022-10-20T11:44:00;19.30;;;12.23;;
49826;SDS011;35715;51.570;6.036;2022-10-20T11:49:23;21.63;;;11.70;;
49826;SDS011;35715;51.570;6.036;2022-10-20T11:57:57;19.13;;;12.55;;
49826;SDS011;35715;51.570;6.036;2022-10-20T12:15:43;21.88;;;15.23;;
49826;SDS011;35715;51.570;6.036;2022-10-20T12:18:20;16.98;;;13.15;;
49826;SDS011;35715;51.570;6.036;2022-10-20T12:20:50;20.13;;;14.43;;
49826;SDS011;35715;51.570;6.036;2022-10-20T12:28:58;20.85;;;15.52;;
49826;SDS011;35715;51.570;6.036;2022-10-20T12:32:21;20.38;;;15.40;;
49826;SDS011;35715;51.570;6.036;2022-10-20T12:34:28;24.63;;;17.88;;
49826;SDS011;35715;51.570;6.036;2022-10-20T12:37:24;22.10;;;16.83;;
49826;SDS011;35715;51.570;6.036;2022-10-20T12:39:59;22.77;;;16.73;;
49826;SDS011;35715;51.570;6.036;2022-10-20T12:42:34;20.55;;;15.45;;
49826;SDS011;35715;51.570;6.036;2022-10-20T12:47:47;16.83;;;15.07;;
49826;SDS011;35715;51.570;6.036;2022-10-20T12:53:40;19.83;;;16.38;;
49826;SDS011;35715;51.570;6.036;2022-10-20T13:08:08;17.52;;;15.45;;
49826;SDS011;35715;51.570;6.036;2022-10-20T13:10:35;16.65;;;14.73;;
49826;SDS011;35715;51.570;6.036;2022-10-20T13:20:51;25.90;;;16.33;;
49826;SDS011;35715;51.570;6.036;2022-10-20T13:23:24;24.02;;;15.65;;
49826;SDS011;35715;51.570;6.036;2022-10-20T13:28:46;17.73;;;15.77;;
49826;SDS011;35715;51.570;6.036;2022-10-20T13:39:16;20.65;;;14.85;;
49826;SDS011;35715;51.570;6.036;2022-10-20T13:41:54;15.63;;;13.90;;
49826;SDS011;35715;51.570;6.036;2022-10-20T13:45:06;14.82;;;13.40;;
49826;SDS011;35715;51.570;6.036;2022-10-20T13:50:22;20.73;;;14.25;;
49826;SDS011;35715;51.570;6.036;2022-10-20T13:52:56;21.05;;;13.70;;
49826;SDS011;35715;51.570;6.036;2022-10-20T13:55:27;17.27;;;14.30;;
49826;SDS011;35715;51.570;6.036;2022-10-20T13:58:05;17.70;;;14.93;;
49826;SDS011;35715;51.570;6.036;2022-10-20T14:00:38;23.40;;;14.88;;
49826;SDS011;35715;51.570;6.036;2022-10-20T14:03:14;23.05;;;15.00;;
49826;SDS011;35715;51.570;6.036;2022-10-20T14:05:43;20.48;;;15.32;;
49826;SDS011;35715;51.570;6.036;2022-10-20T14:08:09;27.88;;;16.45;;
49826;SDS011;35715;51.570;6.036;2022-10-20T14:10:52;18.63;;;15.65;;
49826;SDS011;35715;51.570;6.036;2022-10-20T14:13:22;15.63;;;13.98;;
49826;SDS011;35715;51.570;6.036;2022-10-20T14:15:55;21.50;;;15.45;;
49826;SDS011;35715;51.570;6.036;2022-10-20T14:18:26;16.25;;;14.38;;
49826;SDS011;35715;51.570;6.036;2022-10-20T14:20:58;21.13;;;15.13;;
49826;SDS011;35715;51.570;6.036;2022-10-20T14:23:28;15.32;;;13.60;;
49826;SDS011;35715;51.570;6.036;2022-10-20T14:26:01;18.17;;;15.60;;
49826;SDS011;35715;51.570;6.036;2022-10-20T14:28:30;21.95;;;15.32;;
49826;SDS011;35715;51.570;6.036;2022-10-20T14:30:57;20.75;;;13.98;;
49826;SDS011;35715;51.570;6.036;2022-10-20T14:33:24;23.58;;;15.18;;
49826;SDS011;35715;51.570;6.036;2022-10-20T14:35:57;18.02;;;13.15;;
49826;SDS011;35715;51.570;6.036;2022-10-20T14:38:25;22.42;;;15.00;;
49826;SDS011;35715;51.570;6.036;2022-10-20T14:40:56;17.00;;;13.57;;
49826;SDS011;35715;51.570;6.036;2022-10-20T14:45:54;18.73;;;13.82;;
49826;SDS011;35715;51.570;6.036;2022-10-20T14:48:22;17.23;;;15.48;;
49826;SDS011;35715;51.570;6.036;2022-10-20T14:50:49;18.90;;;15.00;;
49826;SDS011;35715;51.570;6.036;2022-10-20T14:53:17;20.20;;;13.90;;
49826;SDS011;35715;51.570;6.036;2022-10-20T14:55:59;17.80;;;15.20;;
49826;SDS011;35715;51.570;6.036;2022-10-20T14:58:34;22.02;;;15.57;;
49826;SDS011;35715;51.570;6.036;2022-10-20T15:01:25;19.98;;;14.63;;
49826;SDS011;35715;51.570;6.036;2022-10-20T15:04:03;33.95;;;15.10;;
49826;SDS011;35715;51.570;6.036;2022-10-20T15:06:48;25.73;;;15.15;;
49826;SDS011;35715;51.570;6.036;2022-10-20T15:09:29;29.83;;;14.25;;
49826;SDS011;35715;51.570;6.036;2022-10-20T15:11:59;17.73;;;12.80;;
49826;SDS011;35715;51.570;6.036;2022-10-20T15:14:29;17.30;;;13.98;;
49826;SDS011;35715;51.570;6.036;2022-10-20T15:17:01;15.15;;;13.25;;
49826;SDS011;35715;51.570;6.036;2022-10-20T15:19:33;19.05;;;14.95;;
49826;SDS011;35715;51.570;6.036;2022-10-20T15:22:01;14.13;;;12.43;;
49826;SDS011;35715;51.570;6.036;2022-10-20T15:24:33;18.48;;;12.73;;
49826;SDS011;35715;51.570;6.036;2022-10-20T15:27:00;18.23;;;13.43;;
49826;SDS011;35715;51.570;6.036;2022-10-20T15:29:27;22.15;;;14.63;;
49826;SDS011;35715;51.570;6.036;2022-10-20T15:31:53;25.70;;;14.32;;
49826;SDS011;35715;51.570;6.036;2022-10-20T15:34:19;15.88;;;13.27;;
49826;SDS011;35715;51.570;6.036;2022-10-20T15:36:46;19.95;;;15.75;;
49826;SDS011;35715;51.570;6.036;2022-10-20T15:39:12;20.92;;;15.55;;
49826;SDS011;35715;51.570;6.036;2022-10-20T15:41:38;21.70;;;15.63;;
49826;SDS011;35715;51.570;6.036;2022-10-20T15:49:11;21.27;;;16.63;;
49826;SDS011;35715;51.570;6.036;2022-10-20T15:52:05;16.58;;;14.55;;
49826;SDS011;35715;51.570;6.036;2022-10-20T15:54:34;27.77;;;15.05;;
49826;SDS011;35715;51.570;6.036;2022-10-20T15:57:13;16.42;;;14.73;;
49826;SDS011;35715;51.570;6.036;2022-10-20T15:59:39;20.15;;;13.93;;
49826;SDS011;35715;51.570;6.036;2022-10-20T16:02:07;20.52;;;14.45;;
49826;SDS011;35715;51.570;6.036;2022-10-20T16:04:37;15.82;;;14.18;;
49826;SDS011;35715;51.570;6.036;2022-10-20T16:07:05;16.20;;;12.65;;
49826;SDS011;35715;51.570;6.036;2022-10-20T16:09:31;14.38;;;12.93;;
49826;SDS011;35715;51.570;6.036;2022-10-20T16:11:56;19.33;;;13.93;;
49826;SDS011;35715;51.570;6.036;2022-10-20T16:14:22;24.02;;;14.70;;
49826;SDS011;35715;51.570;6.036;2022-10-20T16:16:47;16.73;;;12.85;;
49826;SDS011;35715;51.570;6.036;2022-10-20T16:19:12;18.90;;;13.38;;
49826;SDS011;35715;51.570;6.036;2022-10-20T16:21:38;15.65;;;13.40;;
49826;SDS011;35715;51.570;6.036;2022-10-20T16:24:03;15.68;;;13.95;;
49826;SDS011;35715;51.570;6.036;2022-10-20T16:26:30;21.70;;;13.95;;
49826;SDS011;35715;51.570;6.036;2022-10-20T16:28:55;14.88;;;13.07;;
49826;SDS011;35715;51.570;6.036;2022-10-20T16:31:20;18.95;;;14.63;;
49826;SDS011;35715;51.570;6.036;2022-10-20T16:33:46;20.45;;;14.30;;
49826;SDS011;35715;51.570;6.036;2022-10-20T16:39:01;14.83;;;13.33;;
49826;SDS011;35715;51.570;6.036;2022-10-20T16:41:26;15.52;;;14.02;;
49826;SDS011;35715;51.570;6.036;2022-10-20T16:43:52;15.70;;;13.57;;
49826;SDS011;35715;51.570;6.036;2022-10-20T16:48:47;16.73;;;13.00;;
49826;SDS011;35715;51.570;6.036;2022-10-20T16:51:12;20.45;;;14.55;;
49826;SDS011;35715;51.570;6.036;2022-10-20T16:53:39;23.13;;;15.77;;
49826;SDS011;35715;51.570;6.036;2022-10-20T16:56:12;17.52;;;14.57;;
49826;SDS011;35715;51.570;6.036;2022-10-20T16:58:37;18.45;;;15.60;;
49826;SDS011;35715;51.570;6.036;2022-10-20T17:01:08;17.85;;;14.95;;
49826;SDS011;35715;51.570;6.036;2022-10-20T17:03:36;23.95;;;16.83;;
49826;SDS011;35715;51.570;6.036;2022-10-20T17:06:13;16.73;;;14.45;;
49826;SDS011;35715;51.570;6.036;2022-10-20T17:08:40;14.27;;;12.80;;
49826;SDS011;35715;51.570;6.036;2022-10-20T17:11:06;30.13;;;16.10;;
49826;SDS011;35715;51.570;6.036;2022-10-20T17:13:33;17.15;;;15.18;;
49826;SDS011;35715;51.570;6.036;2022-10-20T17:16:07;17.35;;;13.85;;
49826;SDS011;35715;51.570;6.036;2022-10-20T17:18:37;26.70;;;15.00;;
49826;SDS011;35715;51.570;6.036;2022-10-20T17:21:03;22.75;;;14.88;;
49826;SDS011;35715;51.570;6.036;2022-10-20T17:23:32;23.00;;;16.08;;
49826;SDS011;35715;51.570;6.036;2022-10-20T17:26:01;17.25;;;14.52;;
49826;SDS011;35715;51.570;6.036;2022-10-20T17:28:29;22.92;;;14.63;;
49826;SDS011;35715;51.570;6.036;2022-10-20T17:30:55;22.60;;;14.30;;
49826;SDS011;35715;51.570;6.036;2022-10-20T17:33:24;15.35;;;13.73;;
49826;SDS011;35715;51.570;6.036;2022-10-20T17:35:58;16.90;;;14.15;;
49826;SDS011;35715;51.570;6.036;2022-10-20T17:38:24;21.33;;;14.40;;
49826;SDS011;35715;51.570;6.036;2022-10-20T17:40:51;23.98;;;14.95;;
49826;SDS011;35715;51.570;6.036;2022-10-20T17:43:19;18.13;;;14.55;;
49826;SDS011;35715;51.570;6.036;2022-10-20T17:46:03;17.73;;;13.35;;
49826;SDS011;35715;51.570;6.036;2022-10-20T17:48:30;23.58;;;15.63;;
49826;SDS011;35715;51.570;6.036;2022-10-20T17:53:25;17.17;;;14.18;;
49826;SDS011;35715;51.570;6.036;2022-10-20T17:55:52;17.83;;;13.32;;
49826;SDS011;35715;51.570;6.036;2022-10-20T17:58:17;18.92;;;13.95;;
49826;SDS011;35715;51.570;6.036;2022-10-20T18:00:42;17.70;;;13.70;;